sensor_id;sensor_type;location;lat;lon;timestamp;pressure;altitude;pressure_sealevel;temperature;humidity
21276;BME280;36472;52.170;20.884;2023-12-22T00:01:09;96736.88;;;5.34;100.00
21276;BME280;36472;52.170;20.884;2023-12-22T00:03:41;96745.69;;;5.41;100.00
21276;BME280;36472;52.170;20.884;2023-12-22T00:06:10;96752.56;;;5.50;99.28
21276;BME280;36472;52.170;20.884;2023-12-22T00:08:39;96742.75;;;5.44;98.85
21276;BME280;36472;52.170;20.884;2023-12-22T00:11:08;96748.13;;;5.42;98.44
21276;BME280;36472;52.170;20.884;2023-12-22T00:13:37;96731.66;;;5.34;97.42
21276;BME280;36472;52.170;20.884;2023-12-22T00:16:08;96752.41;;;5.52;98.08
21276;BME280;36472;52.170;20.884;2023-12-22T00:18:38;96751.72;;;5.41;97.42
21276;BME280;36472;52.170;20.884;2023-12-22T00:21:09;96757.28;;;5.47;97.12
21276;BME280;36472;52.170;20.884;2023-12-22T00:23:38;96763.59;;;5.44;97.07
21276;BME280;36472;52.170;20.884;2023-12-22T00:26:07;96768.84;;;5.52;97.22
21276;BME280;36472;52.170;20.884;2023-12-22T00:28:37;96772.41;;;5.51;96.79
21276;BME280;36472;52.170;20.884;2023-12-22T00:31:07;96780.06;;;5.53;96.27
21276;BME280;36472;52.170;20.884;2023-12-22T00:33:36;96771.06;;;5.39;96.70
21276;BME280;36472;52.170;20.884;2023-12-22T00:36:06;96789.69;;;5.52;95.60
21276;BME280;36472;52.170;20.884;2023-12-22T00:38:35;96791.78;;;5.49;95.21
21276;BME280;36472;52.170;20.884;2023-12-22T00:41:04;96801.00;;;5.43;95.31
21276;BME280;36472;52.170;20.884;2023-12-22T00:43:33;96809.88;;;5.58;94.45
21276;BME280;36472;52.170;20.884;2023-12-22T00:46:02;96810.91;;;5.66;93.27
21276;BME280;36472;52.170;20.884;2023-12-22T00:48:32;96813.75;;;5.54;93.25
21276;BME280;36472;52.170;20.884;2023-12-22T00:51:02;96797.03;;;5.57;93.77
21276;BME280;36472;52.170;20.884;2023-12-22T00:53:31;96813.47;;;5.57;92.99
21276;BME280;36472;52.170;20.884;2023-12-22T00:56:00;96805.59;;;5.49;92.92
21276;BME280;36472;52.170;20.884;2023-12-22T00:58:30;96806.09;;;5.53;91.23
21276;BME280;36472;52.170;20.884;2023-12-22T01:00:59;96801.91;;;5.60;91.13
21276;BME280;36472;52.170;20.884;2023-12-22T01:03:28;96798.75;;;5.48;90.45
21276;BME280;36472;52.170;20.884;2023-12-22T01:05:59;96804.00;;;5.56;90.30
21276;BME280;36472;52.170;20.884;2023-12-22T01:08:28;96796.97;;;5.49;89.95
21276;BME280;36472;52.170;20.884;2023-12-22T01:10:57;96796.84;;;5.58;89.75
21276;BME280;36472;52.170;20.884;2023-12-22T01:13:26;96801.06;;;5.51;89.04
21276;BME280;36472;52.170;20.884;2023-12-22T01:15:55;96798.00;;;5.56;88.46
21276;BME280;36472;52.170;20.884;2023-12-22T01:18:24;96797.78;;;5.49;87.56
21276;BME280;36472;52.170;20.884;2023-12-22T01:20:58;96797.50;;;5.52;87.72
21276;BME280;36472;52.170;20.884;2023-12-22T01:23:27;96784.28;;;5.46;86.11
21276;BME280;36472;52.170;20.884;2023-12-22T01:25:56;96785.22;;;5.36;86.65
21276;BME280;36472;52.170;20.884;2023-12-22T01:28:25;96790.94;;;5.40;86.02
21276;BME280;36472;52.170;20.884;2023-12-22T01:30:54;96787.56;;;5.21;85.71
21276;BME280;36472;52.170;20.884;2023-12-22T01:33:23;96787.88;;;5.18;86.41
21276;BME280;36472;52.170;20.884;2023-12-22T01:35:52;96793.50;;;5.32;85.32
21276;BME280;36472;52.170;20.884;2023-12-22T01:38:23;96787.34;;;5.41;83.73
21276;BME280;36472;52.170;20.884;2023-12-22T01:40:52;96789.44;;;5.37;84.54
21276;BME280;36472;52.170;20.884;2023-12-22T01:43:21;96798.75;;;5.48;83.94
21276;BME280;36472;52.170;20.884;2023-12-22T01:45:55;96789.13;;;5.40;84.10
21276;BME280;36472;52.170;20.884;2023-12-22T01:48:25;96788.94;;;5.34;84.52
21276;BME280;36472;52.170;20.884;2023-12-22T01:50:56;96794.03;;;5.43;83.61
21276;BME280;36472;52.170;20.884;2023-12-22T01:53:29;96788.53;;;5.47;82.85
21276;BME280;36472;52.170;20.884;2023-12-22T01:56:02;96797.06;;;5.31;84.16
21276;BME280;36472;52.170;20.884;2023-12-22T01:58:34;96794.16;;;5.34;83.13
21276;BME280;36472;52.170;20.884;2023-12-22T02:01:16;96799.09;;;5.45;82.93
21276;BME280;36472;52.170;20.884;2023-12-22T02:03:48;96799.09;;;5.45;82.87
21276;BME280;36472;52.170;20.884;2023-12-22T02:06:21;96822.38;;;5.47;82.09
21276;BME280;36472;52.170;20.884;2023-12-22T02:08:51;96812.09;;;5.45;82.87
21276;BME280;36472;52.170;20.884;2023-12-22T02:11:20;96819.56;;;5.40;83.05
21276;BME280;36472;52.170;20.884;2023-12-22T02:13:49;96817.97;;;5.47;82.45
21276;BME280;36472;52.170;20.884;2023-12-22T02:16:29;96796.50;;;5.53;83.29
21276;BME280;36472;52.170;20.884;2023-12-22T02:19:12;96798.84;;;5.65;83.01
21276;BME280;36472;52.170;20.884;2023-12-22T02:21:59;96805.53;;;5.67;82.24
21276;BME280;36472;52.170;20.884;2023-12-22T02:24:35;96801.63;;;5.71;81.93
21276;BME280;36472;52.170;20.884;2023-12-22T02:27:07;96801.16;;;5.76;81.94
21276;BME280;36472;52.170;20.884;2023-12-22T02:29:47;96795.28;;;5.66;82.46
21276;BME280;36472;52.170;20.884;2023-12-22T02:32:23;96782.91;;;5.68;82.86
21276;BME280;36472;52.170;20.884;2023-12-22T02:34:56;96799.53;;;5.75;81.79
21276;BME280;36472;52.170;20.884;2023-12-22T02:37:27;96803.03;;;5.57;82.46
21276;BME280;36472;52.170;20.884;2023-12-22T02:39:59;96784.16;;;5.55;82.50
21276;BME280;36472;52.170;20.884;2023-12-22T02:42:30;96790.06;;;5.66;82.92
21276;BME280;36472;52.170;20.884;2023-12-22T02:45:00;96789.72;;;5.69;82.19
21276;BME280;36472;52.170;20.884;2023-12-22T02:47:29;96785.16;;;5.62;82.39
21276;BME280;36472;52.170;20.884;2023-12-22T02:50:00;96778.00;;;5.65;80.87
21276;BME280;36472;52.170;20.884;2023-12-22T02:52:29;96792.66;;;5.66;80.60
21276;BME280;36472;52.170;20.884;2023-12-22T02:55:01;96791.78;;;5.49;80.68
21276;BME280;36472;52.170;20.884;2023-12-22T02:57:31;96786.78;;;5.63;80.52
21276;BME280;36472;52.170;20.884;2023-12-22T03:00:00;96789.91;;;5.75;79.23
21276;BME280;36472;52.170;20.884;2023-12-22T03:02:29;96783.88;;;5.75;78.78
21276;BME280;36472;52.170;20.884;2023-12-22T03:04:58;96786.50;;;5.75;79.34
21276;BME280;36472;52.170;20.884;2023-12-22T03:07:27;96794.97;;;5.77;78.92
21276;BME280;36472;52.170;20.884;2023-12-22T03:09:56;96797.06;;;5.73;79.05
21276;BME280;36472;52.170;20.884;2023-12-22T03:12:27;96798.72;;;5.74;78.76
21276;BME280;36472;52.170;20.884;2023-12-22T03:14:55;96796.56;;;5.70;80.75
21276;BME280;36472;52.170;20.884;2023-12-22T03:17:25;96800.59;;;5.56;81.44
21276;BME280;36472;52.170;20.884;2023-12-22T03:19:53;96798.94;;;5.47;81.91
21276;BME280;36472;52.170;20.884;2023-12-22T03:22:23;96796.00;;;5.50;83.08
21276;BME280;36472;52.170;20.884;2023-12-22T03:24:51;96792.94;;;5.54;82.26
21276;BME280;36472;52.170;20.884;2023-12-22T03:27:21;96788.34;;;5.48;83.31
21276;BME280;36472;52.170;20.884;2023-12-22T03:29:51;96794.34;;;5.40;83.69
21276;BME280;36472;52.170;20.884;2023-12-22T03:32:20;96780.50;;;5.40;82.95
21276;BME280;36472;52.170;20.884;2023-12-22T03:34:49;96779.69;;;5.39;83.58
21276;BME280;36472;52.170;20.884;2023-12-22T03:37:19;96780.47;;;5.32;82.90
21276;BME280;36472;52.170;20.884;2023-12-22T03:39:47;96792.69;;;5.31;83.19
21276;BME280;36472;52.170;20.884;2023-12-22T03:42:16;96787.78;;;5.28;82.63
21276;BME280;36472;52.170;20.884;2023-12-22T03:44:45;96785.47;;;5.25;82.37
21276;BME280;36472;52.170;20.884;2023-12-22T03:47:16;96793.13;;;5.27;81.82
21276;BME280;36472;52.170;20.884;2023-12-22T03:49:45;96784.34;;;5.28;81.47
21276;BME280;36472;52.170;20.884;2023-12-22T03:52:14;96786.19;;;5.35;81.84
21276;BME280;36472;52.170;20.884;2023-12-22T03:54:43;96785.56;;;5.41;81.57
21276;BME280;36472;52.170;20.884;2023-12-22T03:57:12;96784.38;;;5.36;82.01
21276;BME280;36472;52.170;20.884;2023-12-22T03:59:41;96786.19;;;5.35;80.83
21276;BME280;36472;52.170;20.884;2023-12-22T04:02:11;96779.47;;;5.33;80.52
21276;BME280;36472;52.170;20.884;2023-12-22T04:04:41;96793.38;;;5.41;80.51
21276;BME280;36472;52.170;20.884;2023-12-22T04:07:10;96783.63;;;5.43;79.83
21276;BME280;36472;52.170;20.884;2023-12-22T04:09:39;96770.94;;;5.14;81.83
21276;BME280;36472;52.170;20.884;2023-12-22T04:12:08;96785.69;;;5.32;81.50
21276;BME280;36472;52.170;20.884;2023-12-22T04:14:37;96783.19;;;5.22;81.10
21276;BME280;36472;52.170;20.884;2023-12-22T04:17:07;96770.06;;;5.32;80.76
21276;BME280;36472;52.170;20.884;2023-12-22T04:19:36;96778.38;;;5.35;80.99
21276;BME280;36472;52.170;20.884;2023-12-22T04:22:07;96774.72;;;5.20;80.63
21276;BME280;36472;52.170;20.884;2023-12-22T04:24:36;96799.00;;;5.29;81.21
21276;BME280;36472;52.170;20.884;2023-12-22T04:27:05;96796.44;;;5.11;81.12
21276;BME280;36472;52.170;20.884;2023-12-22T04:29:34;96782.88;;;5.25;79.88
21276;BME280;36472;52.170;20.884;2023-12-22T04:32:03;96790.19;;;5.21;79.18
21276;BME280;36472;52.170;20.884;2023-12-22T04:34:32;96804.94;;;5.13;79.22
21276;BME280;36472;52.170;20.884;2023-12-22T04:37:01;96795.34;;;5.13;80.54
21276;BME280;36472;52.170;20.884;2023-12-22T04:39:31;96797.28;;;5.11;80.77
21276;BME280;36472;52.170;20.884;2023-12-22T04:42:00;96799.81;;;5.03;80.20
21276;BME280;36472;52.170;20.884;2023-12-22T04:44:29;96804.59;;;5.16;81.01
21276;BME280;36472;52.170;20.884;2023-12-22T04:46:58;96807.69;;;5.11;82.70
21276;BME280;36472;52.170;20.884;2023-12-22T04:49:27;96818.84;;;5.03;84.37
21276;BME280;36472;52.170;20.884;2023-12-22T04:51:56;96827.66;;;4.84;84.56
21276;BME280;36472;52.170;20.884;2023-12-22T04:54:28;96826.06;;;4.83;86.03
21276;BME280;36472;52.170;20.884;2023-12-22T04:56:59;96835.56;;;4.57;88.50
21276;BME280;36472;52.170;20.884;2023-12-22T04:59:28;96843.19;;;4.04;90.27
21276;BME280;36472;52.170;20.884;2023-12-22T05:01:57;96833.50;;;3.79;92.29
21276;BME280;36472;52.170;20.884;2023-12-22T05:04:26;96836.56;;;3.64;94.52
21276;BME280;36472;52.170;20.884;2023-12-22T05:06:56;96830.47;;;3.55;96.30
21276;BME280;36472;52.170;20.884;2023-12-22T05:09:25;96844.97;;;3.48;97.74
21276;BME280;36472;52.170;20.884;2023-12-22T05:11:55;96834.13;;;3.63;98.39
21276;BME280;36472;52.170;20.884;2023-12-22T05:14:25;96839.34;;;3.53;99.27
21276;BME280;36472;52.170;20.884;2023-12-22T05:16:54;96846.56;;;3.59;98.60
21276;BME280;36472;52.170;20.884;2023-12-22T05:19:24;96835.59;;;3.65;99.21
21276;BME280;36472;52.170;20.884;2023-12-22T05:21:53;96828.78;;;3.64;98.73
21276;BME280;36472;52.170;20.884;2023-12-22T05:24:23;96825.22;;;3.65;98.33
21276;BME280;36472;52.170;20.884;2023-12-22T05:26:52;96830.13;;;3.68;98.36
21276;BME280;36472;52.170;20.884;2023-12-22T05:29:21;96837.22;;;3.76;98.55
21276;BME280;36472;52.170;20.884;2023-12-22T05:31:52;96833.63;;;3.77;98.73
21276;BME280;36472;52.170;20.884;2023-12-22T05:34:21;96846.38;;;3.70;97.52
21276;BME280;36472;52.170;20.884;2023-12-22T05:36:50;96833.47;;;3.61;97.82
21276;BME280;36472;52.170;20.884;2023-12-22T05:39:19;96844.69;;;3.79;97.39
21276;BME280;36472;52.170;20.884;2023-12-22T05:41:48;96836.69;;;3.72;96.37
21276;BME280;36472;52.170;20.884;2023-12-22T05:44:17;96838.69;;;3.79;95.96
21276;BME280;36472;52.170;20.884;2023-12-22T05:46:46;96857.91;;;3.86;95.58
21276;BME280;36472;52.170;20.884;2023-12-22T05:49:17;96853.41;;;3.88;95.29
21276;BME280;36472;52.170;20.884;2023-12-22T05:51:46;96866.22;;;3.89;94.87
21276;BME280;36472;52.170;20.884;2023-12-22T05:54:15;96854.09;;;3.90;94.33
21276;BME280;36472;52.170;20.884;2023-12-22T05:56:44;96850.88;;;3.96;94.80
21276;BME280;36472;52.170;20.884;2023-12-22T05:59:13;96865.66;;;3.96;93.97
21276;BME280;36472;52.170;20.884;2023-12-22T06:01:42;96860.72;;;4.02;92.33
21276;BME280;36472;52.170;20.884;2023-12-22T06:04:12;96859.81;;;4.11;91.49
21276;BME280;36472;52.170;20.884;2023-12-22T06:06:42;96868.88;;;4.07;91.63
21276;BME280;36472;52.170;20.884;2023-12-22T06:09:12;96875.13;;;4.15;89.13
21276;BME280;36472;52.170;20.884;2023-12-22T06:11:41;96874.28;;;4.24;89.13
21276;BME280;36472;52.170;20.884;2023-12-22T06:14:10;96885.09;;;4.19;86.03
21276;BME280;36472;52.170;20.884;2023-12-22T06:16:39;96876.09;;;4.14;86.69
21276;BME280;36472;52.170;20.884;2023-12-22T06:19:08;96885.28;;;4.08;85.86
21276;BME280;36472;52.170;20.884;2023-12-22T06:21:38;96869.88;;;4.24;83.47
21276;BME280;36472;52.170;20.884;2023-12-22T06:24:10;96874.72;;;4.37;82.38
21276;BME280;36472;52.170;20.884;2023-12-22T06:26:39;96865.16;;;4.38;82.50
21276;BME280;36472;52.170;20.884;2023-12-22T06:29:08;96878.81;;;4.40;79.15
21276;BME280;36472;52.170;20.884;2023-12-22T06:31:38;96901.84;;;4.53;78.84
21276;BME280;36472;52.170;20.884;2023-12-22T06:34:07;96893.88;;;4.54;75.47
21276;BME280;36472;52.170;20.884;2023-12-22T06:36:36;96894.56;;;4.56;72.57
21276;BME280;36472;52.170;20.884;2023-12-22T06:39:05;96910.31;;;4.55;73.47
21276;BME280;36472;52.170;20.884;2023-12-22T06:41:36;96887.13;;;4.43;72.02
21276;BME280;36472;52.170;20.884;2023-12-22T06:44:05;96902.75;;;4.61;71.51
21276;BME280;36472;52.170;20.884;2023-12-22T06:46:34;96903.34;;;4.73;69.34
21276;BME280;36472;52.170;20.884;2023-12-22T06:49:03;96902.00;;;4.69;67.48
21276;BME280;36472;52.170;20.884;2023-12-22T06:51:34;96921.72;;;4.72;66.00
21276;BME280;36472;52.170;20.884;2023-12-22T06:54:04;96916.50;;;4.72;64.83
21276;BME280;36472;52.170;20.884;2023-12-22T06:56:35;96925.63;;;4.76;66.45
21276;BME280;36472;52.170;20.884;2023-12-22T06:59:04;96929.78;;;4.68;67.47
21276;BME280;36472;52.170;20.884;2023-12-22T07:01:34;96910.31;;;4.73;67.43
21276;BME280;36472;52.170;20.884;2023-12-22T07:04:04;96928.38;;;4.74;66.99
21276;BME280;36472;52.170;20.884;2023-12-22T07:06:35;96920.72;;;4.55;67.67
21276;BME280;36472;52.170;20.884;2023-12-22T07:09:31;96940.88;;;4.71;68.26
21276;BME280;36472;52.170;20.884;2023-12-22T07:12:02;96941.63;;;4.63;67.08
21276;BME280;36472;52.170;20.884;2023-12-22T07:14:31;96945.78;;;4.74;66.65
21276;BME280;36472;52.170;20.884;2023-12-22T07:17:02;96949.34;;;4.73;66.08
21276;BME280;36472;52.170;20.884;2023-12-22T07:19:32;96945.78;;;4.74;66.22
21276;BME280;36472;52.170;20.884;2023-12-22T07:34:48;96967.63;;;5.17;64.14
21276;BME280;36472;52.170;20.884;2023-12-22T07:37:18;96961.75;;;4.97;64.19
21276;BME280;36472;52.170;20.884;2023-12-22T07:39:49;96974.19;;;5.03;64.42
21276;BME280;36472;52.170;20.884;2023-12-22T07:42:18;96985.53;;;5.02;65.39
21276;BME280;36472;52.170;20.884;2023-12-22T07:44:47;96983.75;;;4.84;65.44
21276;BME280;36472;52.170;20.884;2023-12-22T07:59:38;96988.47;;;4.99;61.07
21276;BME280;36472;52.170;20.884;2023-12-22T08:02:08;96988.00;;;4.85;61.34
21276;BME280;36472;52.170;20.884;2023-12-22T08:04:37;96988.97;;;4.84;60.95
21276;BME280;36472;52.170;20.884;2023-12-22T08:07:06;96988.97;;;4.84;62.10
21276;BME280;36472;52.170;20.884;2023-12-22T08:09:34;96984.88;;;4.82;61.87
21276;BME280;36472;52.170;20.884;2023-12-22T08:12:05;96996.63;;;4.86;62.05
21276;BME280;36472;52.170;20.884;2023-12-22T08:14:34;96981.56;;;4.62;62.50
21276;BME280;36472;52.170;20.884;2023-12-22T08:17:04;97003.16;;;4.72;63.45
21276;BME280;36472;52.170;20.884;2023-12-22T08:19:33;96997.03;;;4.63;64.59
21276;BME280;36472;52.170;20.884;2023-12-22T08:22:05;96996.50;;;4.60;65.51
21276;BME280;36472;52.170;20.884;2023-12-22T08:24:35;97001.94;;;4.66;65.71
21276;BME280;36472;52.170;20.884;2023-12-22T08:27:05;97011.59;;;4.74;66.10
21276;BME280;36472;52.170;20.884;2023-12-22T08:29:34;97005.38;;;4.67;66.65
21276;BME280;36472;52.170;20.884;2023-12-22T08:32:06;97009.06;;;4.64;67.75
21276;BME280;36472;52.170;20.884;2023-12-22T08:34:35;97015.09;;;4.65;67.32
21276;BME280;36472;52.170;20.884;2023-12-22T08:37:04;97018.19;;;4.78;68.26
21276;BME280;36472;52.170;20.884;2023-12-22T08:39:33;97028.72;;;4.77;68.07
21276;BME280;36472;52.170;20.884;2023-12-22T08:42:03;97038.88;;;4.70;68.51
21276;BME280;36472;52.170;20.884;2023-12-22T08:44:32;97035.84;;;4.75;69.01
21276;BME280;36472;52.170;20.884;2023-12-22T08:47:01;97036.66;;;4.47;68.33
21276;BME280;36472;52.170;20.884;2023-12-22T08:49:32;97038.59;;;4.73;68.48
21276;BME280;36472;52.170;20.884;2023-12-22T08:52:01;97033.69;;;4.70;67.78
21276;BME280;36472;52.170;20.884;2023-12-22T08:54:31;97022.16;;;4.73;67.38
21276;BME280;36472;52.170;20.884;2023-12-22T08:57:02;97030.25;;;4.69;68.34
21276;BME280;36472;52.170;20.884;2023-12-22T08:59:31;97029.16;;;4.72;68.43
21276;BME280;36472;52.170;20.884;2023-12-22T09:02:00;97027.97;;;4.84;68.74
21276;BME280;36472;52.170;20.884;2023-12-22T09:04:29;97035.72;;;4.94;68.70
21276;BME280;36472;52.170;20.884;2023-12-22T09:07:00;97023.03;;;5.09;69.26
21276;BME280;36472;52.170;20.884;2023-12-22T09:09:29;97022.50;;;5.23;68.40
21276;BME280;36472;52.170;20.884;2023-12-22T09:11:58;97026.06;;;5.22;67.01
21276;BME280;36472;52.170;20.884;2023-12-22T09:14:27;97010.91;;;5.36;66.24
21276;BME280;36472;52.170;20.884;2023-12-22T09:16:57;97005.31;;;5.31;65.65
21276;BME280;36472;52.170;20.884;2023-12-22T09:19:26;97008.16;;;5.19;65.55
21276;BME280;36472;52.170;20.884;2023-12-22T09:21:55;96997.81;;;5.28;64.23
21276;BME280;36472;52.170;20.884;2023-12-22T09:24:25;96987.09;;;5.31;64.58
21276;BME280;36472;52.170;20.884;2023-12-22T09:26:54;96991.63;;;5.29;62.47
21276;BME280;36472;52.170;20.884;2023-12-22T09:29:30;96997.81;;;5.28;63.24
21276;BME280;36472;52.170;20.884;2023-12-22T09:32:01;96991.56;;;5.38;64.05
21276;BME280;36472;52.170;20.884;2023-12-22T09:34:30;96976.09;;;5.37;63.13
21276;BME280;36472;52.170;20.884;2023-12-22T09:36:59;96985.66;;;5.54;64.31
21276;BME280;36472;52.170;20.884;2023-12-22T09:39:30;96971.56;;;5.65;62.77
21276;BME280;36472;52.170;20.884;2023-12-22T09:41:59;96969.66;;;5.75;62.29
21276;BME280;36472;52.170;20.884;2023-12-22T09:44:32;96969.91;;;5.90;62.78
21276;BME280;36472;52.170;20.884;2023-12-22T09:47:04;96963.84;;;5.99;63.10
21276;BME280;36472;52.170;20.884;2023-12-22T09:49:35;96950.72;;;5.91;62.66
21276;BME280;36472;52.170;20.884;2023-12-22T09:52:07;96930.56;;;5.67;61.51
21276;BME280;36472;52.170;20.884;2023-12-22T09:54:38;96948.09;;;5.65;61.63
21276;BME280;36472;52.170;20.884;2023-12-22T09:57:08;96938.88;;;5.71;61.61
21276;BME280;36472;52.170;20.884;2023-12-22T09:59:54;96919.00;;;5.70;62.17
21276;BME280;36472;52.170;20.884;2023-12-22T10:02:25;96927.47;;;5.72;63.11
21276;BME280;36472;52.170;20.884;2023-12-22T10:04:54;96910.38;;;5.69;62.07
21276;BME280;36472;52.170;20.884;2023-12-22T10:07:25;96897.09;;;5.54;63.57
21276;BME280;36472;52.170;20.884;2023-12-22T10:09:57;97033.97;;;5.49;65.23
21276;BME280;36472;52.170;20.884;2023-12-22T10:12:29;97018.72;;;4.17;77.92
21276;BME280;36472;52.170;20.884;2023-12-22T10:15:00;97032.81;;;2.89;84.67
21276;BME280;36472;52.170;20.884;2023-12-22T10:17:30;97031.91;;;2.18;89.83
21276;BME280;36472;52.170;20.884;2023-12-22T10:19:59;97051.69;;;1.67;93.35
21276;BME280;36472;52.170;20.884;2023-12-22T10:22:29;97045.47;;;1.38;96.33
21276;BME280;36472;52.170;20.884;2023-12-22T10:24:59;97057.97;;;1.21;98.53
21276;BME280;36472;52.170;20.884;2023-12-22T10:27:30;97057.22;;;1.09;99.91
21276;BME280;36472;52.170;20.884;2023-12-22T10:30:00;97067.13;;;1.04;100.00
21276;BME280;36472;52.170;20.884;2023-12-22T10:32:30;97047.94;;;1.07;100.00
21276;BME280;36472;52.170;20.884;2023-12-22T10:34:59;97047.47;;;1.02;100.00
21276;BME280;36472;52.170;20.884;2023-12-22T10:37:28;97041.28;;;0.93;100.00
21276;BME280;36472;52.170;20.884;2023-12-22T10:39:58;97055.97;;;0.92;100.00
21276;BME280;36472;52.170;20.884;2023-12-22T10:42:28;97037.44;;;0.87;100.00
21276;BME280;36472;52.170;20.884;2023-12-22T10:44:57;97049.50;;;0.87;100.00
21276;BME280;36472;52.170;20.884;2023-12-22T10:47:27;97042.22;;;0.92;100.00
21276;BME280;36472;52.170;20.884;2023-12-22T10:49:57;97036.00;;;0.95;100.00
21276;BME280;36472;52.170;20.884;2023-12-22T10:52:26;97021.66;;;0.90;100.00
21276;BME280;36472;52.170;20.884;2023-12-22T10:54:58;97004.44;;;1.01;100.00
21276;BME280;36472;52.170;20.884;2023-12-22T10:57:28;96978.59;;;1.01;100.00
21276;BME280;36472;52.170;20.884;2023-12-22T10:59:57;96970.22;;;1.08;100.00
21276;BME280;36472;52.170;20.884;2023-12-22T11:02:28;96962.94;;;1.14;100.00
21276;BME280;36472;52.170;20.884;2023-12-22T11:05:02;96964.88;;;1.21;100.00
21276;BME280;36472;52.170;20.884;2023-12-22T11:07:36;96949.09;;;1.24;100.00
21276;BME280;36472;52.170;20.884;2023-12-22T11:10:10;96958.75;;;1.22;100.00
21276;BME280;36472;52.170;20.884;2023-12-22T11:12:44;96953.78;;;1.30;100.00
21276;BME280;36472;52.170;20.884;2023-12-22T11:15:16;96942.31;;;1.23;100.00
21276;BME280;36472;52.170;20.884;2023-12-22T11:17:48;96937.91;;;1.35;100.00
21276;BME280;36472;52.170;20.884;2023-12-22T11:20:20;96930.94;;;1.36;100.00
21276;BME280;36472;52.170;20.884;2023-12-22T11:22:54;96931.13;;;1.44;100.00
21276;BME280;36472;52.170;20.884;2023-12-22T11:25:28;96931.38;;;1.41;100.00
21276;BME280;36472;52.170;20.884;2023-12-22T11:28:00;96940.91;;;1.40;100.00
21276;BME280;36472;52.170;20.884;2023-12-22T11:30:31;96929.78;;;1.49;100.00
21276;BME280;36472;52.170;20.884;2023-12-22T11:33:02;96934.03;;;1.51;100.00
21276;BME280;36472;52.170;20.884;2023-12-22T11:35:34;96933.72;;;1.44;100.00
21276;BME280;36472;52.170;20.884;2023-12-22T11:38:05;96928.44;;;1.55;100.00
21276;BME280;36472;52.170;20.884;2023-12-22T11:40:36;96932.88;;;1.64;100.00
21276;BME280;36472;52.170;20.884;2023-12-22T11:43:06;96936.31;;;1.75;100.00
21276;BME280;36472;52.170;20.884;2023-12-22T11:45:36;96928.50;;;1.65;100.00
21276;BME280;36472;52.170;20.884;2023-12-22T11:48:08;96933.75;;;1.75;100.00
21276;BME280;36472;52.170;20.884;2023-12-22T11:50:39;96935.66;;;1.82;100.00
21276;BME280;36472;52.170;20.884;2023-12-22T11:53:19;96933.06;;;1.82;100.00
21276;BME280;36472;52.170;20.884;2023-12-22T11:56:01;96912.78;;;1.87;100.00
21276;BME280;36472;52.170;20.884;2023-12-22T11:58:39;96922.88;;;1.91;100.00
21276;BME280;36472;52.170;20.884;2023-12-22T12:01:10;96921.66;;;1.95;100.00
21276;BME280;36472;52.170;20.884;2023-12-22T12:03:50;96916.66;;;2.03;100.00
21276;BME280;36472;52.170;20.884;2023-12-22T12:06:32;96909.00;;;2.01;100.00
21276;BME280;36472;52.170;20.884;2023-12-22T12:09:06;96902.94;;;2.12;100.00
21276;BME280;36472;52.170;20.884;2023-12-22T12:12:12;96899.66;;;2.10;100.00
21276;BME280;36472;52.170;20.884;2023-12-22T12:14:43;96899.78;;;2.18;100.00
21276;BME280;36472;52.170;20.884;2023-12-22T12:17:16;96904.84;;;2.20;100.00
21276;BME280;36472;52.170;20.884;2023-12-22T12:19:48;96904.44;;;2.24;100.00
21276;BME280;36472;52.170;20.884;2023-12-22T12:22:19;96898.59;;;2.32;100.00
21276;BME280;36472;52.170;20.884;2023-12-22T12:24:54;96884.69;;;2.33;100.00
21276;BME280;36472;52.170;20.884;2023-12-22T12:27:24;96889.88;;;2.33;100.00
21276;BME280;36472;52.170;20.884;2023-12-22T12:29:53;96894.09;;;2.24;100.00
21276;BME280;36472;52.170;20.884;2023-12-22T12:32:23;96886.16;;;2.16;100.00
21276;BME280;36472;52.170;20.884;2023-12-22T12:34:53;96884.78;;;2.22;100.00
21276;BME280;36472;52.170;20.884;2023-12-22T12:37:24;96883.31;;;2.29;100.00
21276;BME280;36472;52.170;20.884;2023-12-22T12:39:58;96875.41;;;2.21;100.00
21276;BME280;36472;52.170;20.884;2023-12-22T12:42:31;96892.03;;;2.28;100.00
21276;BME280;36472;52.170;20.884;2023-12-22T12:45:00;96897.38;;;2.36;100.00
21276;BME280;36472;52.170;20.884;2023-12-22T12:47:31;96884.28;;;2.28;100.00
21276;BME280;36472;52.170;20.884;2023-12-22T12:50:01;96899.81;;;2.28;100.00
21276;BME280;36472;52.170;20.884;2023-12-22T12:52:31;96892.81;;;2.09;100.00
21276;BME280;36472;52.170;20.884;2023-12-22T12:55:01;96904.19;;;2.28;100.00
21276;BME280;36472;52.170;20.884;2023-12-22T12:57:32;96900.38;;;2.32;100.00
21276;BME280;36472;52.170;20.884;2023-12-22T13:00:01;96896.66;;;2.05;100.00
21276;BME280;36472;52.170;20.884;2023-12-22T13:02:35;96899.66;;;2.20;100.00
21276;BME280;36472;52.170;20.884;2023-12-22T13:05:06;96889.16;;;2.21;100.00
21276;BME280;36472;52.170;20.884;2023-12-22T13:07:37;96883.81;;;2.03;100.00
21276;BME280;36472;52.170;20.884;2023-12-22T13:10:20;96883.59;;;2.26;100.00
21276;BME280;36472;52.170;20.884;2023-12-22T13:12:51;96875.41;;;2.21;100.00
21276;BME280;36472;52.170;20.884;2023-12-22T13:15:22;96866.53;;;2.14;100.00
21276;BME280;36472;52.170;20.884;2023-12-22T13:17:51;96867.63;;;2.21;100.00
21276;BME280;36472;52.170;20.884;2023-12-22T13:20:22;96872.66;;;2.13;100.00
21276;BME280;36472;52.170;20.884;2023-12-22T13:22:51;96881.69;;;2.28;100.00
21276;BME280;36472;52.170;20.884;2023-12-22T13:25:20;96863.25;;;2.21;100.00
21276;BME280;36472;52.170;20.884;2023-12-22T13:27:52;96863.66;;;2.17;100.00
21276;BME280;36472;52.170;20.884;2023-12-22T13:30:33;96869.69;;;2.17;100.00
21276;BME280;36472;52.170;20.884;2023-12-22T13:33:02;96861.78;;;2.19;100.00
21276;BME280;36472;52.170;20.884;2023-12-22T13:35:33;96857.13;;;2.22;100.00
21276;BME280;36472;52.170;20.884;2023-12-22T13:38:09;96868.56;;;2.20;100.00
21276;BME280;36472;52.170;20.884;2023-12-22T13:40:44;96868.44;;;2.21;100.00